Time;durP1;ratioP1;P1;durP2;ratioP2;P2;SDS_P1;SDS_P2;PMS_P1;PMS_P2;Temp;Humidity;BMP_temperature;BMP_pressure;BME280_temperature;BME280_humidity;BME280_pressure;Samples;Min_cycle;Max_cycle;Signal;HPM_P1;HPM_P2
2022/05/24 00:01:22;;;;;;;3.50;2.30;;;17.90;99.90;;;;;;4999153;28;20496;-53
2022/05/24 00:03:49;;;;;;;4.17;2.27;;;17.90;99.90;;;;;;5002896;28;20491;-52
2022/05/24 00:06:16;;;;;;;9.87;3.27;;;17.90;99.90;;;;;;5006983;28;20480;-52
2022/05/24 00:08:43;;;;;;;6.43;2.30;;;17.90;99.90;;;;;;5009295;28;20519;-53
2022/05/24 00:11:11;;;;;;;7.40;2.57;;;17.90;99.90;;;;;;5005575;28;20508;-53
2022/05/24 00:13:38;;;;;;;3.10;2.80;;;17.80;99.90;;;;;;5008079;28;20495;-52
2022/05/24 00:16:05;;;;;;;2.60;2.37;;;17.80;99.90;;;;;;5011125;28;20518;-53
2022/05/24 00:18:32;;;;;;;2.73;2.50;;;17.90;99.90;;;;;;5004943;28;21737;-53
2022/05/24 00:21:00;;;;;;;2.33;2.23;;;17.90;99.90;;;;;;5009771;28;20479;-53
2022/05/24 00:23:29;;;;;;;7.83;2.67;;;17.80;99.90;;;;;;5013821;28;20451;-52
2022/05/24 00:26:00;;;;;;;3.63;2.53;;;17.80;99.90;;;;;;5007277;28;20459;-52
2022/05/24 00:28:30;;;;;;;5.80;2.30;;;17.80;99.90;;;;;;5005466;28;20492;-53
2022/05/24 00:30:57;;;;;;;4.97;2.63;;;17.80;99.90;;;;;;5008939;28;20965;-53
2022/05/24 00:33:25;;;;;;;2.67;2.47;;;17.80;99.90;;;;;;5003142;28;20495;-53
2022/05/24 00:35:52;;;;;;;4.97;2.53;;;17.80;99.90;;;;;;5010866;28;20550;-53
2022/05/24 00:38:24;;;;;;;2.90;2.23;;;17.80;99.90;;;;;;4999716;28;20570;-52
2022/05/24 00:40:58;;;;;;;3.73;2.63;;;17.80;99.90;;;;;;5009680;28;20507;-52
2022/05/24 00:43:32;;;;;;;3.43;2.57;;;17.80;99.90;;;;;;5004239;28;20981;-53
2022/05/24 00:46:04;;;;;;;2.20;2.10;;;17.70;99.90;;;;;;5006454;28;20989;-52
2022/05/24 00:48:35;;;;;;;3.20;3.00;;;17.70;99.90;;;;;;5003946;28;20479;-51
2022/05/24 00:51:04;;;;;;;3.03;2.83;;;17.70;99.90;;;;;;5006120;28;20457;-53
2022/05/24 00:53:36;;;;;;;4.10;2.77;;;17.70;99.90;;;;;;5011238;28;20510;-53
2022/05/24 00:56:17;;;;;;;9.10;3.00;;;17.70;99.90;;;;;;5006864;28;20460;-52
2022/05/24 00:58:51;;;;;;;2.50;2.20;;;17.70;99.90;;;;;;5003969;28;20523;-53
2022/05/24 01:01:31;;;;;;;2.40;2.30;;;17.70;99.90;;;;;;5003246;28;20818;-52
2022/05/24 01:03:58;;;;;;;3.00;2.70;;;17.70;99.90;;;;;;5007555;28;20495;-52
2022/05/24 01:06:24;;;;;;;3.43;2.20;;;17.70;99.90;;;;;;4998651;28;20503;-53
2022/05/24 01:08:53;;;;;;;7.50;2.47;;;17.70;99.90;;;;;;5005005;28;20511;-53
2022/05/24 01:11:21;;;;;;;5.80;2.70;;;17.70;99.90;;;;;;4996249;28;20550;-52
2022/05/24 01:13:51;;;;;;;5.60;2.43;;;17.70;99.90;;;;;;5010087;28;20502;-52
2022/05/24 01:16:18;;;;;;;2.23;1.93;;;17.70;99.90;;;;;;5007753;28;20510;-53
2022/05/24 01:18:45;;;;;;;2.70;2.27;;;17.70;99.90;;;;;;5007509;28;20579;-54
2022/05/24 01:21:16;;;;;;;2.53;2.30;;;17.70;99.90;;;;;;5006447;28;20554;-53
2022/05/24 01:23:57;;;;;;;2.43;2.30;;;17.70;99.90;;;;;;5020436;28;20455;-52
2022/05/24 01:26:34;;;;;;;6.13;2.70;;;17.70;99.90;;;;;;5002682;28;20491;-53
2022/05/24 01:29:04;;;;;;;3.80;2.23;;;17.70;99.90;;;;;;5002464;28;20961;-53
2022/05/24 01:36:09;;;;;;;3.37;2.70;;;17.70;99.90;;;;;;5005038;28;20498;-53
2022/05/24 01:37:04;;;;;;;3.13;2.47;;;17.60;99.90;;;;;;5007539;28;20570;-53
2022/05/24 01:39:31;;;;;;;3.33;2.67;;;17.60;99.90;;;;;;4998604;28;20571;-53
2022/05/24 01:41:59;;;;;;;7.20;3.00;;;17.60;99.90;;;;;;5002952;28;20543;-53
2022/05/24 01:44:32;;;;;;;3.30;2.57;;;17.60;99.90;;;;;;5004501;28;20515;-53
2022/05/24 01:47:00;;;;;;;3.83;2.57;;;17.60;99.90;;;;;;5005867;28;20546;-52
2022/05/24 01:49:34;;;;;;;3.20;2.30;;;17.60;99.90;;;;;;5001466;28;20566;-53
2022/05/24 01:52:07;;;;;;;3.43;3.17;;;17.60;99.90;;;;;;5003572;28;21045;-53
2022/05/24 01:54:39;;;;;;;5.20;2.87;;;17.50;99.90;;;;;;4995723;28;20523;-52
2022/05/24 01:57:13;;;;;;;2.77;2.50;;;17.60;99.90;;;;;;5004887;28;20547;-52
2022/05/24 01:59:41;;;;;;;3.30;2.53;;;17.60;99.90;;;;;;5002034;28;20496;-52
2022/05/24 02:02:08;;;;;;;4.03;2.20;;;17.50;99.90;;;;;;4996036;28;20583;-52
2022/05/24 02:04:35;;;;;;;4.07;2.53;;;17.50;99.90;;;;;;5010193;28;20495;-52
2022/05/24 02:07:06;;;;;;;2.57;2.37;;;17.60;99.90;;;;;;5007252;28;20552;-53
2022/05/24 02:09:34;;;;;;;2.87;2.60;;;17.50;99.90;;;;;;5001127;28;20490;-53
2022/05/24 02:12:03;;;;;;;3.83;2.83;;;17.50;99.90;;;;;;5004562;28;20554;-53
2022/05/24 02:14:34;;;;;;;7.30;2.83;;;17.50;99.90;;;;;;5010730;28;20547;-52
2022/05/24 02:17:04;;;;;;;4.90;2.80;;;17.50;99.90;;;;;;5006596;28;20497;-53
2022/05/24 02:19:34;;;;;;;5.77;2.40;;;17.50;99.90;;;;;;5008981;28;20520;-53
2022/05/24 02:22:04;;;;;;;4.13;2.77;;;17.50;99.90;;;;;;5006971;28;20495;-52
2022/05/24 02:24:30;;;;;;;4.10;2.70;;;17.60;99.90;;;;;;5010882;28;20597;-53
2022/05/24 02:26:58;;;;;;;2.83;2.63;;;17.50;99.90;;;;;;5005831;28;20580;-53
2022/05/24 02:29:25;;;;;;;3.57;3.10;;;17.50;99.90;;;;;;5009130;28;20571;-52
2022/05/24 02:31:53;;;;;;;5.73;3.13;;;17.60;99.90;;;;;;5008377;28;20887;-53
2022/05/24 02:34:20;;;;;;;3.13;2.70;;;17.50;99.90;;;;;;5012943;28;20538;-53
2022/05/24 02:36:46;;;;;;;6.10;2.77;;;17.50;99.90;;;;;;5005203;28;20546;-52
2022/05/24 02:39:13;;;;;;;3.07;2.80;;;17.50;99.90;;;;;;5008568;28;20569;-52
2022/05/24 02:41:39;;;;;;;5.30;2.73;;;17.50;99.90;;;;;;5007765;28;20555;-53
2022/05/24 02:44:09;;;;;;;3.50;2.80;;;17.40;99.90;;;;;;5006351;28;20550;-53
2022/05/24 02:46:39;;;;;;;2.43;2.30;;;17.40;99.90;;;;;;5002535;28;20590;-52
2022/05/24 02:49:08;;;;;;;4.40;2.73;;;17.30;99.30;;;;;;5008046;28;21073;-53
2022/05/24 02:51:35;;;;;;;4.93;2.87;;;17.20;84.00;;;;;;5004276;28;20463;-53
2022/05/24 02:54:01;;;;;;;3.60;2.70;;;17.20;74.20;;;;;;5007873;28;20543;-53
2022/05/24 02:56:28;;;;;;;4.60;2.90;;;17.10;60.00;;;;;;5009036;28;20558;-53
2022/05/24 02:58:55;;;;;;;4.30;2.63;;;17.00;53.80;;;;;;5007389;28;21298;-53
2022/05/24 03:01:24;;;;;;;8.43;3.60;;;16.90;50.70;;;;;;5009798;28;20843;-53
2022/05/24 03:03:52;;;;;;;3.47;2.70;;;16.90;39.00;;;;;;5011217;28;20558;-52
2022/05/24 03:06:21;;;;;;;6.27;3.23;;;16.70;23.30;;;;;;5012059;28;20539;-52
2022/05/24 03:14:26;;;;;;;3.20;3.00;;;16.50;99.90;;;;;;5005309;28;20446;-52
2022/05/24 03:16:54;;;;;;;5.20;3.47;;;16.30;99.90;;;;;;5010549;28;20555;-52
2022/05/24 03:19:21;;;;;;;4.07;3.20;;;16.10;99.90;;;;;;5010812;28;20570;-52
2022/05/24 03:21:50;;;;;;;6.40;3.90;;;16.00;99.90;;;;;;5008359;28;20556;-52
2022/05/24 03:24:17;;;;;;;6.07;3.80;;;15.90;99.90;;;;;;5013680;28;20468;-51
2022/05/24 03:26:43;;;;;;;9.43;3.43;;;15.70;99.90;;;;;;5008985;28;20535;-52
2022/05/24 03:29:10;;;;;;;5.97;3.40;;;15.70;98.20;;;;;;5003625;28;20571;-52
2022/05/24 03:31:36;;;;;;;8.40;3.93;;;15.60;83.30;;;;;;4999369;28;20537;-52
2022/05/24 03:34:03;;;;;;;10.53;3.67;;;15.60;78.10;;;;;;5009085;28;20500;-52
2022/05/24 03:36:29;;;;;;;6.10;3.70;;;15.50;73.80;;;;;;5014005;28;20547;-52
2022/05/24 03:38:57;;;;;;;3.70;2.90;;;15.50;53.40;;;;;;5005595;28;20546;-52
2022/05/24 03:41:24;;;;;;;3.23;3.10;;;15.50;35.30;;;;;;5013292;28;20483;-52
2022/05/24 03:43:50;;;;;;;20.77;16.90;;;15.40;28.60;;;;;;5007641;28;20554;-52
2022/05/24 03:46:18;;;;;;;23.13;15.60;;;15.40;35.30;;;;;;5000182;28;20491;-52
2022/05/24 03:48:44;;;;;;;16.37;12.20;;;15.40;39.80;;;;;;5002995;28;20571;-52
2022/05/24 03:51:11;;;;;;;6.70;6.10;;;15.40;34.60;;;;;;5009536;28;20539;-52
2022/05/24 03:53:37;;;;;;;5.93;4.23;;;15.30;31.80;;;;;;5006339;28;20563;-52
2022/05/24 03:56:06;;;;;;;6.30;4.40;;;15.40;30.00;;;;;;5013255;28;20502;-52
2022/05/24 03:58:32;;;;;;;3.73;3.13;;;15.30;88.80;;;;;;5009636;28;20549;-52
2022/05/24 04:00:59;;;;;;;10.53;3.90;;;15.30;99.90;;;;;;5011481;28;20495;-53
2022/05/24 04:03:26;;;;;;;5.47;3.93;;;15.30;99.90;;;;;;5005024;28;20538;-52
2022/05/24 04:05:53;;;;;;;7.27;3.77;;;15.30;99.90;;;;;;5001458;28;20566;-52
2022/05/24 04:08:24;;;;;;;4.00;3.53;;;15.30;99.90;;;;;;5005162;28;20464;-52
2022/05/24 04:10:51;;;;;;;4.00;3.63;;;15.20;99.90;;;;;;5000920;28;20483;-52
2022/05/24 04:13:18;;;;;;;5.90;3.77;;;15.20;99.90;;;;;;5006902;28;21048;-54
2022/05/24 04:15:45;;;;;;;3.80;3.50;;;15.20;99.90;;;;;;5011978;28;20554;-52
2022/05/24 04:18:11;;;;;;;4.60;3.90;;;15.20;99.90;;;;;;5008366;28;20578;-52
2022/05/24 04:20:38;;;;;;;5.87;4.17;;;15.20;99.90;;;;;;4998691;28;21058;-53
2022/05/24 04:23:04;;;;;;;7.80;4.27;;;15.20;99.90;;;;;;5013810;28;21011;-53
2022/05/24 04:25:35;;;;;;;4.50;4.10;;;15.30;99.90;;;;;;5000550;28;20464;-52
2022/05/24 04:28:02;;;;;;;4.40;4.10;;;15.20;99.90;;;;;;5000643;28;20457;-52
2022/05/24 04:30:30;;;;;;;7.63;5.63;;;15.20;99.90;;;;;;5004722;28;20563;-51
2022/05/24 04:32:57;;;;;;;4.00;3.70;;;15.10;99.90;;;;;;5007300;28;20459;-51
2022/05/24 04:35:24;;;;;;;5.90;3.90;;;15.20;99.90;;;;;;5001775;28;20578;-51
2022/05/24 04:37:50;;;;;;;5.47;3.80;;;15.20;99.90;;;;;;5006449;28;20567;-52
2022/05/24 04:40:17;;;;;;;12.10;5.53;;;15.20;99.90;;;;;;4999543;28;20487;-52
2022/05/24 04:42:43;;;;;;;4.17;3.87;;;15.20;99.90;;;;;;5008591;28;20554;-52
2022/05/24 04:45:11;;;;;;;12.23;5.70;;;15.30;99.90;;;;;;5005525;28;21064;-52
2022/05/24 04:47:39;;;;;;;8.50;4.57;;;15.30;99.90;;;;;;5010059;28;20310;-52
2022/05/24 04:50:09;;;;;;;10.07;5.13;;;15.30;99.90;;;;;;4984481;28;20516;-53
2022/05/24 04:52:38;;;;;;;4.80;3.50;;;15.40;99.90;;;;;;4988808;28;20534;-53
2022/05/24 04:55:06;;;;;;;4.83;4.30;;;15.40;99.90;;;;;;5002114;28;20295;-52
2022/05/24 04:57:33;;;;;;;5.10;4.47;;;15.40;99.90;;;;;;4996361;28;20590;-52
2022/05/24 05:00:00;;;;;;;5.70;4.40;;;15.40;99.90;;;;;;4990673;28;20480;-51
2022/05/24 05:02:26;;;;;;;4.53;4.00;;;15.40;99.90;;;;;;4993065;28;21050;-53
2022/05/24 05:04:55;;;;;;;7.17;4.97;;;15.40;99.90;;;;;;4998057;28;20560;-52
2022/05/24 05:07:22;;;;;;;11.07;5.03;;;15.40;99.90;;;;;;4989206;28;20579;-51
2022/05/24 05:09:51;;;;;;;8.80;5.07;;;15.50;99.90;;;;;;4990072;28;21245;-52
2022/05/24 05:12:19;;;;;;;5.53;4.90;;;15.50;99.90;;;;;;4997483;28;20463;-53
2022/05/24 05:14:46;;;;;;;6.87;4.90;;;15.60;99.90;;;;;;5009172;28;20460;-52
2022/05/24 05:17:13;;;;;;;4.13;3.73;;;15.60;99.90;;;;;;5001357;28;20547;-52
2022/05/24 05:19:40;;;;;;;5.00;4.53;;;15.70;99.90;;;;;;4997645;28;20487;-52
2022/05/24 05:22:08;;;;;;;4.23;3.93;;;15.70;99.90;;;;;;4990818;28;20601;-51
2022/05/24 05:24:35;;;;;;;6.07;4.53;;;15.70;99.90;;;;;;5000577;28;20491;-53
2022/05/24 05:27:01;;;;;;;4.83;4.43;;;15.70;99.90;;;;;;5000768;28;20558;-52
2022/05/24 05:32:19;;;;;;;3.70;3.20;;;15.70;99.90;;;;;;4983757;28;20513;-53
2022/05/24 05:34:47;;;;;;;3.87;3.57;;;15.70;99.90;;;;;;4991558;28;20496;-53
2022/05/24 05:37:15;;;;;;;3.83;3.50;;;15.70;99.90;;;;;;4999141;28;20514;-52
2022/05/24 05:39:42;;;;;;;7.60;3.40;;;15.70;99.90;;;;;;4988881;28;20488;-52
2022/05/24 05:42:09;;;;;;;3.70;3.40;;;15.60;99.90;;;;;;4993565;28;20551;-53
2022/05/24 05:44:36;;;;;;;4.43;4.07;;;15.60;99.90;;;;;;5003872;28;20529;-51
2022/05/24 05:47:02;;;;;;;5.13;4.20;;;15.60;99.90;;;;;;4997902;28;20487;-53
2022/05/24 05:49:29;;;;;;;5.53;3.97;;;15.60;99.90;;;;;;5000184;28;20578;-52
2022/05/24 05:51:56;;;;;;;4.27;3.93;;;15.60;99.90;;;;;;5000291;28;20594;-52
2022/05/24 05:54:24;;;;;;;8.97;5.20;;;15.60;99.90;;;;;;4999951;28;20463;-52
2022/05/24 05:56:51;;;;;;;4.57;4.27;;;15.60;99.90;;;;;;4997866;28;21160;-53
2022/05/24 05:59:18;;;;;;;21.77;4.17;;;15.60;99.90;;;;;;4993153;28;20519;-53
2022/05/24 06:01:45;;;;;;;5.50;4.83;;;15.70;99.90;;;;;;5010348;28;20470;-52
2022/05/24 06:04:12;;;;;;;5.17;4.67;;;15.70;99.90;;;;;;5001797;28;20554;-53
2022/05/24 06:06:40;;;;;;;5.47;4.63;;;15.70;99.90;;;;;;5008980;28;20542;-52
2022/05/24 06:09:07;;;;;;;6.00;4.80;;;15.70;99.90;;;;;;5007814;28;20571;-52
2022/05/24 06:11:35;;;;;;;5.40;4.93;;;15.70;99.90;;;;;;5002220;28;20468;-52
2022/05/24 06:14:02;;;;;;;4.43;4.13;;;15.70;99.90;;;;;;4984292;28;21105;-52
2022/05/24 06:16:29;;;;;;;7.73;4.70;;;15.80;99.90;;;;;;4993254;28;20608;-51
2022/05/24 06:18:56;;;;;;;6.33;5.33;;;15.80;89.00;;;;;;4996307;28;20591;-52
2022/05/24 06:21:23;;;;;;;9.70;5.57;;;15.80;99.90;;;;;;4994552;28;20502;-53
2022/05/24 06:23:49;;;;;;;10.63;4.60;;;15.90;90.00;;;;;;5001156;28;20550;-53
2022/05/24 06:26:18;;;;;;;5.73;3.93;;;15.90;23.40;;;;;;4982414;28;20460;-52
2022/05/24 06:28:46;;;;;;;4.30;3.97;;;16.00;42.60;;;;;;4986056;28;20480;-52
2022/05/24 06:31:13;;;;;;;4.50;4.10;;;16.00;41.10;;;;;;4986218;28;20650;-52
2022/05/24 06:33:40;;;;;;;4.67;4.20;;;16.10;47.90;;;;;;4983714;28;20474;-53
2022/05/24 06:36:07;;;;;;;4.43;4.13;;;16.10;65.90;;;;;;4977719;28;20483;-52
2022/05/24 06:38:36;;;;;;;6.00;4.20;;;16.10;66.00;;;;;;4985876;28;20930;-53
2022/05/24 06:41:02;;;;;;;4.67;3.90;;;16.10;86.50;;;;;;4983454;28;20464;-51
2022/05/24 06:43:29;;;;;;;4.43;3.93;;;16.30;72.40;;;;;;4988972;28;21026;-53
2022/05/24 06:45:56;;;;;;;4.60;3.13;;;16.30;84.70;;;;;;4999933;28;20555;-52
2022/05/24 06:48:23;;;;;;;5.07;3.53;;;16.30;99.70;;;;;;4993600;28;21057;-51
2022/05/24 06:50:49;;;;;;;3.17;2.90;;;16.40;99.90;;;;;;4978470;28;20522;-51
2022/05/24 06:53:16;;;;;;;2.80;2.63;;;16.50;99.90;;;;;;4988052;28;20837;-52
2022/05/24 06:55:43;;;;;;;3.33;3.03;;;16.60;99.90;;;;;;4993096;28;20463;-52
2022/05/24 06:58:09;;;;;;;3.83;2.90;;;16.60;99.90;;;;;;4999305;28;20563;-53
2022/05/24 07:03:22;;;;;;;4.80;2.83;;;16.70;99.90;;;;;;5004904;28;20450;-52
2022/05/24 07:05:48;;;;;;;3.60;2.60;;;16.60;99.90;;;;;;4995171;28;20546;-52
2022/05/24 07:08:15;;;;;;;10.53;4.27;;;16.70;99.90;;;;;;5011792;28;20587;-53
2022/05/24 07:10:42;;;;;;;2.50;2.30;;;16.70;99.90;;;;;;5002440;28;20579;-52
2022/05/24 07:13:11;;;;;;;3.40;2.30;;;16.80;99.90;;;;;;5000815;28;20467;-52
2022/05/24 07:15:38;;;;;;;4.27;2.63;;;16.70;99.90;;;;;;4996546;28;20551;-52
2022/05/24 07:18:05;;;;;;;5.93;2.30;;;16.80;99.90;;;;;;5003392;28;20558;-52
2022/05/24 07:20:36;;;;;;;6.10;2.87;;;16.90;99.90;;;;;;4994888;28;20583;-52
2022/05/24 07:23:08;;;;;;;3.83;2.37;;;17.00;99.90;;;;;;5006936;28;20479;-51
2022/05/24 07:25:36;;;;;;;5.60;3.10;;;17.10;99.90;;;;;;4995702;28;20981;-52
2022/05/24 07:28:03;;;;;;;4.27;2.73;;;17.20;99.90;;;;;;4997209;28;20543;-52
2022/05/24 07:30:31;;;;;;;3.17;2.80;;;17.20;99.90;;;;;;5001562;28;20483;-52
2022/05/24 07:32:57;;;;;;;3.17;2.97;;;17.20;99.90;;;;;;4989609;28;20741;-52
2022/05/24 07:35:24;;;;;;;2.70;2.40;;;17.10;99.90;;;;;;4992857;28;20563;-53
2022/05/24 07:37:52;;;;;;;2.20;2.10;;;17.10;99.90;;;;;;4994895;28;20572;-52
2022/05/24 07:45:49;;;;;;;2.97;2.77;;;17.10;99.90;;;;;;4996098;28;20487;-53
2022/05/24 07:48:17;;;;;;;4.73;2.33;;;17.10;99.90;;;;;;4998919;28;20641;-52
2022/05/24 07:50:44;;;;;;;3.60;2.67;;;17.10;99.90;;;;;;4995327;28;21061;-53
2022/05/24 07:53:12;;;;;;;2.77;2.57;;;17.10;99.90;;;;;;4991039;28;20566;-53
2022/05/24 07:55:39;;;;;;;2.53;1.90;;;17.10;99.90;;;;;;4998258;28;20486;-52
2022/05/24 07:58:06;;;;;;;3.83;2.47;;;17.10;99.90;;;;;;5000303;28;20888;-52
2022/05/24 08:00:34;;;;;;;2.10;2.00;;;17.00;99.90;;;;;;5002345;28;21192;-52
2022/05/24 08:03:02;;;;;;;4.83;3.13;;;17.00;99.90;;;;;;4989125;28;20570;-53
2022/05/24 08:05:31;;;;;;;2.40;2.20;;;17.00;99.90;;;;;;4990855;28;20471;-52
2022/05/24 08:07:57;;;;;;;3.77;1.70;;;17.00;99.90;;;;;;5000919;28;20456;-53
2022/05/24 08:10:26;;;;;;;2.03;1.90;;;16.90;99.90;;;;;;4991022;28;20622;-53
2022/05/24 08:12:53;;;;;;;2.20;2.00;;;16.90;99.90;;;;;;4992915;28;20468;-52
2022/05/24 08:15:19;;;;;;;1.93;1.83;;;16.90;99.90;;;;;;4993367;28;20522;-52
2022/05/24 08:17:46;;;;;;;1.93;1.83;;;16.80;99.90;;;;;;4994020;28;20548;-53
2022/05/24 08:20:14;;;;;;;2.80;1.93;;;16.80;99.90;;;;;;4996993;28;20590;-52
2022/05/24 08:22:41;;;;;;;1.87;1.70;;;16.80;99.90;;;;;;4992086;28;20468;-52
2022/05/24 08:25:10;;;;;;;2.87;1.90;;;16.80;99.90;;;;;;4998429;28;21229;-52
2022/05/24 08:27:38;;;;;;;2.00;1.90;;;16.90;99.90;;;;;;4995748;28;20487;-52
2022/05/24 08:30:06;;;;;;;3.43;1.40;;;16.90;99.90;;;;;;5004696;28;20558;-52
2022/05/24 08:32:34;;;;;;;2.63;1.40;;;16.90;99.90;;;;;;4991212;28;20469;-52
2022/05/24 08:35:00;;;;;;;2.03;1.83;;;17.00;99.90;;;;;;4994073;28;20560;-51
2022/05/24 08:37:29;;;;;;;2.20;1.37;;;17.00;99.90;;;;;;4996487;28;21036;-52
2022/05/24 08:39:57;;;;;;;1.87;1.37;;;17.10;99.90;;;;;;5002182;28;20483;-52
2022/05/24 08:42:28;;;;;;;1.43;1.43;;;17.30;99.90;;;;;;5002494;28;20520;-51
2022/05/24 08:50:38;;;;;;;2.10;1.90;;;17.70;28.10;;;;;;4997045;28;20529;-51
2022/05/24 08:53:07;;;;;;;2.30;1.67;;;17.80;33.50;;;;;;5000210;28;20472;-52
2022/05/24 08:55:37;;;;;;;1.50;1.40;;;17.90;39.30;;;;;;4998470;28;20492;-51
2022/05/24 08:58:05;;;;;;;1.60;1.50;;;18.00;43.70;;;;;;5010810;28;20922;-52
2022/05/24 09:00:36;;;;;;;1.73;1.60;;;18.20;40.50;;;;;;4996439;28;20502;-51
2022/05/24 09:03:05;;;;;;;1.97;1.63;;;18.30;51.00;;;;;;4996686;28;20970;-52
2022/05/24 09:05:36;;;;;;;2.70;1.57;;;18.30;63.00;;;;;;4992573;28;20472;-52
2022/05/24 09:08:16;;;;;;;2.77;1.70;;;18.30;67.60;;;;;;4999089;28;20486;-52
2022/05/24 09:10:47;;;;;;;1.20;1.20;;;18.30;78.10;;;;;;5004469;28;20570;-52
2022/05/24 09:13:29;;;;;;;1.33;1.30;;;18.20;79.50;;;;;;4999822;28;20504;-53
2022/05/24 09:16:02;;;;;;;1.00;1.00;;;18.20;74.30;;;;;;4996990;28;20555;-52
2022/05/24 09:18:36;;;;;;;2.20;1.23;;;18.20;80.40;;;;;;4995149;28;20575;-52
2022/05/24 09:21:02;;;;;;;8.53;1.20;;;18.30;82.30;;;;;;5012562;23;20499;-53
2022/05/24 09:23:32;;;;;;;1.37;1.27;;;18.30;89.50;;;;;;5000810;28;20554;-53
2022/05/24 09:26:01;;;;;;;3.07;1.90;;;18.50;94.00;;;;;;5003422;28;20586;-52
2022/05/24 09:28:44;;;;;;;1.00;1.00;;;18.70;99.90;;;;;;4999832;28;20459;-53
2022/05/24 09:31:18;;;;;;;1.33;1.23;;;18.80;95.90;;;;;;4994372;28;20988;-52
2022/05/24 09:33:45;;;;;;;1.27;1.17;;;18.90;99.90;;;;;;4993475;28;20557;-52
2022/05/24 09:36:29;;;;;;;2.70;1.40;;;19.10;99.90;;;;;;4993467;28;20464;-52
2022/05/24 09:38:56;;;;;;;1.47;1.37;;;19.20;99.90;;;;;;4991619;28;23093;-53
2022/05/24 09:41:23;;;;;;;2.23;1.30;;;19.20;99.90;;;;;;4995742;28;20581;-53
2022/05/24 09:44:01;;;;;;;4.53;1.70;;;19.30;99.90;;;;;;4992814;28;20565;-52
2022/05/24 09:46:31;;;;;;;3.10;2.80;;;19.50;99.90;;;;;;5003164;28;20463;-52
2022/05/24 09:49:00;;;;;;;1.10;1.10;;;19.50;99.90;;;;;;4990209;28;20497;-53
2022/05/24 09:51:31;;;;;;;1.70;1.10;;;19.50;99.90;;;;;;5001120;28;20489;-52
2022/05/24 09:53:57;;;;;;;1.63;1.50;;;19.40;99.90;;;;;;5007499;28;20538;-52
2022/05/24 09:56:29;;;;;;;1.40;1.30;;;19.40;99.90;;;;;;4994376;28;20550;-53
2022/05/24 09:58:58;;;;;;;10.43;1.40;;;19.50;99.90;;;;;;4993085;28;20539;-53
2022/05/24 10:01:49;;;;;;;1.10;1.10;;;19.80;99.90;;;;;;4995395;28;21072;-53
2022/05/24 10:04:23;;;;;;;1.10;0.97;;;20.00;99.90;;;;;;5002103;28;20487;-53
2022/05/24 10:06:56;;;;;;;1.67;1.30;;;20.10;99.90;;;;;;5006862;28;20567;-53
2022/05/24 10:09:49;;;;;;;1.30;1.30;;;20.00;99.90;;;;;;5002131;28;20458;-52
2022/05/24 10:12:28;;;;;;;1.57;1.47;;;20.00;99.90;;;;;;5001745;28;21012;-53
2022/05/24 10:15:04;;;;;;;1.27;1.27;;;20.00;99.90;;;;;;5000962;28;20650;-54
2022/05/24 10:17:41;;;;;;;1.63;0.80;;;20.00;99.90;;;;;;5003010;28;20572;-53
2022/05/24 10:20:16;;;;;;;1.50;1.40;;;19.90;99.90;;;;;;4999432;28;20594;-53
2022/05/24 10:22:51;;;;;;;1.13;1.13;;;19.80;99.90;;;;;;4999007;28;20459;-51
2022/05/24 10:25:24;;;;;;;7.13;0.97;;;19.70;99.90;;;;;;4998755;28;20498;-52
2022/05/24 10:28:02;;;;;;;2.77;1.03;;;19.80;99.90;;;;;;5002951;28;20966;-52
2022/05/24 10:30:33;;;;;;;1.10;1.10;;;20.10;99.90;;;;;;5001398;28;20570;-52
2022/05/24 10:39:16;;;;;;;1.00;1.00;;;20.40;99.90;;;;;;4999553;28;20610;-52
2022/05/24 10:41:54;;;;;;;7.57;1.60;;;20.70;99.90;;;;;;4987960;28;20526;-52
2022/05/24 10:44:28;;;;;;;1.43;1.30;;;20.90;99.90;;;;;;4996187;28;20938;-51
2022/05/24 10:47:01;;;;;;;1.20;1.20;;;21.10;99.90;;;;;;4997115;28;20537;-52
2022/05/24 10:49:36;;;;;;;1.60;1.50;;;21.10;99.90;;;;;;5001227;28;20461;-52
2022/05/24 10:52:08;;;;;;;1.57;1.20;;;21.10;99.90;;;;;;5005058;28;20470;-53
2022/05/24 10:54:43;;;;;;;1.37;1.37;;;21.00;99.90;;;;;;5005103;28;20534;-52
2022/05/24 10:57:13;;;;;;;2.50;1.37;;;20.90;99.90;;;;;;5007952;28;20536;-51
2022/05/24 10:59:51;;;;;;;1.23;1.13;;;20.90;99.90;;;;;;4999386;28;20490;-52
2022/05/24 11:02:32;;;;;;;1.30;1.20;;;21.00;99.90;;;;;;4998211;28;20571;-52
2022/05/24 11:05:08;;;;;;;1.90;1.23;;;21.00;99.90;;;;;;4998612;28;20491;-51
2022/05/24 11:07:37;;;;;;;1.17;1.17;;;21.00;99.90;;;;;;5012006;28;20498;-51
2022/05/24 11:10:10;;;;;;;1.67;1.20;;;20.90;99.90;;;;;;5004226;28;20483;-51
2022/05/24 11:12:53;;;;;;;1.30;1.20;;;20.80;99.90;;;;;;5010773;28;20922;-52
2022/05/24 11:15:28;;;;;;;1.67;1.40;;;20.80;99.90;;;;;;5000322;28;20551;-51
2022/05/24 11:17:54;;;;;;;2.60;1.43;;;20.70;99.90;;;;;;4998521;28;20492;-53
2022/05/24 11:20:25;;;;;;;1.43;1.40;;;20.60;99.90;;;;;;4996293;28;20593;-52
2022/05/24 11:23:02;;;;;;;1.83;1.73;;;20.70;99.90;;;;;;5006567;28;20463;-51
2022/05/24 11:25:36;;;;;;;1.33;1.33;;;20.80;99.90;;;;;;5001331;28;21039;-52
2022/05/24 11:28:18;;;;;;;1.43;1.40;;;20.80;99.90;;;;;;4998324;28;20534;-53
2022/05/24 11:30:44;;;;;;;2.50;1.33;;;20.90;99.90;;;;;;5013234;28;20944;-52
2022/05/24 11:33:14;;;;;;;2.10;1.23;;;21.20;99.90;;;;;;5003315;28;20547;-51
2022/05/24 11:35:45;;;;;;;1.23;1.13;;;21.30;99.90;;;;;;5003117;28;20579;-52
2022/05/24 11:38:16;;;;;;;1.10;1.10;;;21.20;99.90;;;;;;5008826;28;20468;-51
2022/05/24 11:41:01;;;;;;;1.67;1.57;;;21.20;99.90;;;;;;5002266;28;20851;-52
2022/05/24 11:44:02;;;;;;;1.53;1.43;;;21.20;99.90;;;;;;5004983;28;20844;-53
2022/05/24 11:46:48;;;;;;;1.00;0.80;;;21.10;99.90;;;;;;4996570;28;20556;-53
2022/05/24 11:50:04;;;;;;;1.10;1.10;;;21.00;99.90;;;;;;5002441;28;20542;-52
2022/05/24 11:53:01;;;;;;;1.60;1.50;;;20.90;99.90;;;;;;5006865;28;20484;-52
2022/05/24 11:55:47;;;;;;;1.10;1.10;;;20.80;99.90;;;;;;4998106;28;20467;-53
2022/05/24 11:58:42;;;;;;;1.20;1.20;;;20.70;99.90;;;;;;4999223;28;20583;-53
2022/05/24 12:01:25;;;;;;;5.03;1.80;;;20.70;99.90;;;;;;5019762;28;20521;-52
2022/05/24 12:10:03;;;;;;;1.60;1.50;;;20.60;99.90;;;;;;5006238;28;20482;-52
2022/05/24 12:12:32;;;;;;;1.30;1.20;;;20.70;99.90;;;;;;5003737;28;20529;-52
2022/05/24 12:15:24;;;;;;;1.57;1.47;;;20.90;99.90;;;;;;5002528;28;20464;-54
2022/05/24 12:18:12;;;;;;;3.17;1.20;;;21.00;99.90;;;;;;4986564;28;20468;-52
2022/05/24 12:20:57;;;;;;;1.20;1.00;;;21.00;99.90;;;;;;5000359;28;20590;-52
2022/05/24 12:23:36;;;;;;;1.07;1.07;;;20.90;99.90;;;;;;5007076;28;20468;-54
2022/05/24 12:26:07;;;;;;;1.40;1.30;;;20.80;99.90;;;;;;5010037;28;20501;-53
2022/05/24 12:28:46;;;;;;;1.60;1.43;;;20.80;99.90;;;;;;5002647;28;20463;-54
2022/05/24 12:31:26;;;;;;;1.87;1.27;;;20.70;99.90;;;;;;5007269;28;20540;-52
2022/05/24 12:33:55;;;;;;;1.67;1.53;;;20.70;99.90;;;;;;4999973;28;20452;-53
2022/05/24 12:36:35;;;;;;;1.37;1.27;;;20.70;99.90;;;;;;5003780;28;20518;-54
2022/05/24 12:39:11;;;;;;;1.13;1.03;;;20.70;99.90;;;;;;5005704;28;20506;-53
2022/05/24 12:41:41;;;;;;;0.83;0.83;;;20.80;99.90;;;;;;5003429;28;20536;-53
2022/05/24 12:44:17;;;;;;;1.10;1.10;;;20.90;99.90;;;;;;5008674;28;20480;-55
2022/05/24 12:46:50;;;;;;;1.10;1.10;;;20.90;99.90;;;;;;5007235;28;20534;-55
2022/05/24 12:49:19;;;;;;;1.00;1.00;;;20.90;99.90;;;;;;5008209;28;20462;-55
2022/05/24 12:51:46;;;;;;;9.00;3.47;;;20.90;99.90;;;;;;5002606;28;20467;-55
2022/05/24 12:54:27;;;;;;;1.50;1.40;;;20.90;99.90;;;;;;4997706;28;20546;-55
2022/05/24 12:56:58;;;;;;;1.30;1.30;;;20.80;99.90;;;;;;5000054;28;20555;-55
2022/05/24 12:59:37;;;;;;;1.53;1.10;;;20.80;99.90;;;;;;4995775;28;20467;-54
2022/05/24 13:02:20;;;;;;;1.10;1.10;;;20.80;99.90;;;;;;4991196;28;20471;-55
2022/05/24 13:04:46;;;;;;;1.33;1.23;;;20.80;99.90;;;;;;4999246;28;20456;-56
2022/05/24 13:07:38;;;;;;;1.43;1.33;;;20.90;99.90;;;;;;5000405;28;20565;-54
2022/05/24 13:10:12;;;;;;;1.10;1.00;;;20.90;99.90;;;;;;5006244;28;20526;-54
2022/05/24 13:12:41;;;;;;;1.77;1.67;;;20.90;99.90;;;;;;4996057;28;21025;-55
2022/05/24 13:15:15;;;;;;;1.03;1.03;;;20.80;99.90;;;;;;4996771;28;20831;-55
2022/05/24 13:17:45;;;;;;;1.60;1.50;;;20.80;99.90;;;;;;5007029;28;20459;-54
2022/05/24 13:20:26;;;;;;;1.37;1.27;;;20.80;99.90;;;;;;5006082;28;20590;-55
2022/05/24 13:22:57;;;;;;;2.03;1.73;;;20.90;99.90;;;;;;5001640;28;20459;-54
2022/05/24 13:25:26;;;;;;;1.50;1.40;;;21.00;99.90;;;;;;5002730;28;20518;-54
2022/05/24 13:27:59;;;;;;;1.60;1.50;;;21.00;99.90;;;;;;5006343;28;20547;-53
2022/05/24 13:33:36;;;;;;;1.90;1.50;;;21.10;99.90;;;;;;5000637;28;20466;-51
2022/05/24 13:36:20;;;;;;;1.40;1.30;;;21.20;99.90;;;;;;4996693;28;21145;-51
2022/05/24 13:38:49;;;;;;;1.73;1.43;;;21.30;99.90;;;;;;4993384;28;20522;-50
2022/05/24 13:41:29;;;;;;;1.90;1.80;;;21.40;99.90;;;;;;4992929;28;20573;-51
2022/05/24 13:44:19;;;;;;;2.50;1.73;;;21.50;99.90;;;;;;4994786;28;20464;-52